createdAt,value
2023-04-11T00:00:02.686Z,93.28
2023-04-11T00:01:02.566Z,94.10
2023-04-11T00:02:01.603Z,94.51
2023-04-11T00:03:02.168Z,93.79
2023-04-11T00:04:02.161Z,93.38
2023-04-11T00:05:01.926Z,93.28
2023-04-11T00:06:01.663Z,93.28
2023-04-11T00:07:02.262Z,92.77
2023-04-11T00:08:01.744Z,92.77
2023-04-11T00:09:02.126Z,93.18
2023-04-11T00:10:01.944Z,93.28
2023-04-11T00:11:01.961Z,92.46
2023-04-11T00:12:02.520Z,93.18
2023-04-11T00:13:02.038Z,93.38
2023-04-11T00:14:01.927Z,93.38
2023-04-11T00:15:01.911Z,93.79
2023-04-11T00:16:02.565Z,93.48
2023-04-11T00:17:02.687Z,92.66
2023-04-11T00:18:02.283Z,93.18
2023-04-11T00:19:02.189Z,93.18
2023-04-11T00:20:02.697Z,93.07
2023-04-11T00:21:02.383Z,92.87
2023-04-11T00:22:02.913Z,93.59
2023-04-11T00:23:02.505Z,93.38
2023-04-11T00:24:02.352Z,93.18
2023-04-11T00:25:02.862Z,93.18
2023-04-11T00:26:02.347Z,92.87
2023-04-11T00:27:02.352Z,93.07
2023-04-11T00:28:02.896Z,93.28
2023-04-11T00:29:02.449Z,93.69
2023-04-11T00:30:02.340Z,93.59
2023-04-11T00:31:02.671Z,92.56
2023-04-11T00:32:01.707Z,92.56
2023-04-11T00:33:02.307Z,92.66
2023-04-11T00:34:02.011Z,93.07
2023-04-11T00:35:01.806Z,92.77
2023-04-11T00:36:01.620Z,92.36
2023-04-11T00:37:02.708Z,92.87
2023-04-11T00:38:02.489Z,92.87
2023-04-11T00:39:02.807Z,93.07
2023-04-11T00:40:02.475Z,93.59
2023-04-11T00:41:02.368Z,93.38
2023-04-11T00:42:02.240Z,93.28
2023-04-11T00:43:02.254Z,93.59
2023-04-11T00:44:02.802Z,93.69
2023-04-11T00:45:02.783Z,93.65
2023-04-11T00:46:02.605Z,92.25
2023-04-11T00:47:01.498Z,91.95
2023-04-11T00:48:02.118Z,92.66
2023-04-11T00:49:01.540Z,92.97
2023-04-11T00:50:01.406Z,92.46
2023-04-11T00:51:02.008Z,92.46
2023-04-11T00:52:01.623Z,92.25
2023-04-11T00:53:02.169Z,92.66
2023-04-11T00:54:02.210Z,92.25
2023-04-11T00:55:02.044Z,92.77
2023-04-11T00:56:01.570Z,92.52
2023-04-11T00:57:02.413Z,92.62
2023-04-11T00:58:02.389Z,92.21
2023-04-11T00:59:02.259Z,91.70
2023-04-11T01:00:02.134Z,90.99
2023-04-11T01:01:02.322Z,91.74
2023-04-11T01:02:02.943Z,91.64
2023-04-11T01:03:03.133Z,91.85
2023-04-11T01:04:03.318Z,91.60
2023-04-11T01:05:02.891Z,91.50
2023-04-11T01:06:02.875Z,91.39
2023-04-11T01:07:02.535Z,91.39
2023-04-11T01:08:02.734Z,91.60
2023-04-11T01:09:02.499Z,92.11
2023-04-11T01:10:02.386Z,91.80
2023-04-11T01:11:02.902Z,90.37
2023-04-11T01:12:02.603Z,90.31
2023-04-11T01:13:03.040Z,90.72
2023-04-11T01:14:02.889Z,91.50
2023-04-11T01:15:02.668Z,91.60
2023-04-11T01:16:02.725Z,91.39
2023-04-11T01:17:02.872Z,91.39
2023-04-11T01:18:02.564Z,91.09
2023-04-11T01:19:02.680Z,91.29
2023-04-11T01:20:02.621Z,91.50
2023-04-11T01:21:02.435Z,91.64
2023-04-11T01:22:03.294Z,91.44
2023-04-11T01:23:03.007Z,91.54
2023-04-11T01:24:03.050Z,91.13
2023-04-11T01:25:03.126Z,90.62
2023-04-11T01:26:03.400Z,90.72
2023-04-11T01:27:03.005Z,91.44
2023-04-11T01:28:03.263Z,91.74
2023-04-11T01:29:03.181Z,91.64
2023-04-11T01:30:03.298Z,91.54
2023-04-11T01:31:02.851Z,91.74
2023-04-11T01:32:02.561Z,91.85
2023-04-11T01:33:02.394Z,91.85
2023-04-11T01:34:02.733Z,91.95
2023-04-11T01:35:02.387Z,91.13
2023-04-11T01:36:02.254Z,91.03
2023-04-11T01:37:02.555Z,91.13
2023-04-11T01:38:02.753Z,91.74
2023-04-11T01:39:02.637Z,91.64
2023-04-11T01:40:03.056Z,91.03
2023-04-11T01:41:02.488Z,91.44
2023-04-11T01:42:03.048Z,91.33
2023-04-11T01:43:02.893Z,91.74
2023-04-11T01:44:02.815Z,91.54
2023-04-11T01:45:03.264Z,91.23
2023-04-11T01:46:02.931Z,91.74
2023-04-11T01:47:02.518Z,91.74
2023-04-11T01:48:02.936Z,91.64
2023-04-11T01:49:02.426Z,91.33
2023-04-11T01:50:02.567Z,91.03
2023-04-11T01:51:02.498Z,90.82
2023-04-11T01:52:03.191Z,90.92
2023-04-11T01:53:03.060Z,91.03
2023-04-11T01:54:03.361Z,90.82
2023-04-11T01:55:03.081Z,91.13
2023-04-11T01:56:03.049Z,91.13
2023-04-11T01:57:02.679Z,90.52
2023-04-11T01:58:02.350Z,90.82
2023-04-11T01:59:02.586Z,91.23
2023-04-11T02:00:02.609Z,91.03
2023-04-11T02:01:02.431Z,91.03
2023-04-11T02:02:02.910Z,90.82
2023-04-11T02:03:02.790Z,91.13
2023-04-11T02:04:02.762Z,91.17
2023-04-11T02:05:02.746Z,91.17
2023-04-11T02:06:02.608Z,91.17
2023-04-11T02:07:03.380Z,90.77
2023-04-11T02:08:03.050Z,90.36
2023-04-11T02:09:03.184Z,90.45
2023-04-11T02:10:03.410Z,90.66
2023-04-11T02:11:02.812Z,91.07
2023-04-11T02:12:03.476Z,91.17
2023-04-11T02:13:03.549Z,91.17
2023-04-11T02:14:03.535Z,91.27
2023-04-11T02:15:03.269Z,91.27
2023-04-11T02:16:03.305Z,91.27
2023-04-11T02:17:03.855Z,91.54
2023-04-11T02:18:03.590Z,90.92
2023-04-11T02:19:03.655Z,90.86
2023-04-11T02:20:03.879Z,90.36
2023-04-11T02:21:03.849Z,90.77
2023-04-11T02:22:03.962Z,90.77
2023-04-11T02:23:03.657Z,90.05
2023-04-11T02:24:03.939Z,90.25
2023-04-11T02:25:03.529Z,90.45
2023-04-11T02:26:03.301Z,90.36
2023-04-11T02:27:02.425Z,90.56
2023-04-11T02:28:02.442Z,90.66
2023-04-11T02:29:02.470Z,90.15
2023-04-11T02:30:02.776Z,90.25
2023-04-11T02:31:03.006Z,90.36
2023-04-11T02:32:03.524Z,90.91
2023-04-11T02:33:03.133Z,90.77
2023-04-11T02:34:03.346Z,90.45
2023-04-11T02:35:03.216Z,90.15
2023-04-11T02:36:03.097Z,90.25
2023-04-11T02:37:03.740Z,90.25
2023-04-11T02:38:03.888Z,89.74
2023-04-11T02:39:03.756Z,89.94
2023-04-11T02:40:03.731Z,89.74
2023-04-11T02:41:03.318Z,90.05
2023-04-11T02:42:03.164Z,90.25
2023-04-11T02:43:03.545Z,89.43
2023-04-11T02:44:03.168Z,89.43
2023-04-11T02:45:02.951Z,90.05
2023-04-11T02:46:12.508Z,89.74
2023-04-11T02:47:02.756Z,89.43
2023-04-11T02:48:02.826Z,89.64
2023-04-11T02:49:02.955Z,89.64
2023-04-11T02:50:02.398Z,89.33
2023-04-11T02:51:02.645Z,89.64
2023-04-11T02:52:03.113Z,89.94
2023-04-11T02:53:03.359Z,90.00
2023-04-11T02:54:03.220Z,89.90
2023-04-11T02:55:03.339Z,89.70
2023-04-11T02:56:03.157Z,90.21
2023-04-11T02:57:02.495Z,90.21
2023-04-11T02:58:02.361Z,90.31
2023-04-11T02:59:02.436Z,90.41
2023-04-11T03:00:02.993Z,90.21
2023-04-11T03:01:02.562Z,90.41
2023-04-11T03:02:03.187Z,89.90
2023-04-11T03:03:02.965Z,88.98
2023-04-11T03:04:02.765Z,89.39
2023-04-11T03:05:03.252Z,89.39
2023-04-11T03:06:03.013Z,89.50
2023-04-11T03:07:02.034Z,89.80
2023-04-11T03:08:02.289Z,89.23
2023-04-11T03:09:02.127Z,89.03
2023-04-11T03:10:02.163Z,89.12
2023-04-11T03:11:02.483Z,89.84
2023-04-11T03:12:02.600Z,89.43
2023-04-11T03:13:02.694Z,89.23
2023-04-11T03:14:02.985Z,88.51
2023-04-11T03:15:02.697Z,88.82
2023-04-11T03:16:02.921Z,88.10
2023-04-11T03:17:02.823Z,88.31
2023-04-11T03:18:03.037Z,88.51
2023-04-11T03:19:03.052Z,88.10
2023-04-11T03:20:03.139Z,88.41
2023-04-11T03:21:02.941Z,88.92
2023-04-11T03:22:02.463Z,88.47
2023-04-11T03:23:02.677Z,88.68
2023-04-11T03:24:02.139Z,88.68
2023-04-11T03:25:02.083Z,88.17
2023-04-11T03:26:02.612Z,88.17
2023-04-11T03:27:02.730Z,88.26
2023-04-11T03:28:02.613Z,88.06
2023-04-11T03:29:02.465Z,87.38
2023-04-11T03:30:02.672Z,87.70
2023-04-11T03:31:02.584Z,87.49
2023-04-11T03:32:02.696Z,87.29
2023-04-11T03:33:03.101Z,87.18
2023-04-11T03:34:03.258Z,87.79
2023-04-11T03:35:02.789Z,87.29
2023-04-11T03:36:02.872Z,87.18
2023-04-11T03:37:02.143Z,87.59
2023-04-11T03:38:02.379Z,87.70
2023-04-11T03:39:02.059Z,87.29
2023-04-11T03:40:02.320Z,87.32
2023-04-11T03:41:02.251Z,87.02
2023-04-11T03:42:02.708Z,87.43
2023-04-11T03:43:04.686Z,87.32
2023-04-11T03:44:02.464Z,87.63
2023-04-11T03:45:02.488Z,87.73
2023-04-11T03:46:02.344Z,87.84
2023-04-11T03:47:02.308Z,87.43
2023-04-11T03:48:02.810Z,86.61
2023-04-11T03:49:02.120Z,86.75
2023-04-11T03:50:02.360Z,87.06
2023-04-11T03:51:02.156Z,87.37
2023-04-11T03:52:02.407Z,87.63
2023-04-11T03:53:02.359Z,87.02
2023-04-11T03:54:02.803Z,87.43
2023-04-11T03:55:02.742Z,86.85
2023-04-11T03:56:02.614Z,86.65
2023-04-11T03:57:02.289Z,87.26
2023-04-11T03:58:02.013Z,87.26
2023-04-11T03:59:01.904Z,87.02
2023-04-11T04:00:01.971Z,87.43
2023-04-11T04:01:01.907Z,87.43
2023-04-11T04:02:02.396Z,87.63
2023-04-11T04:03:02.540Z,87.32
2023-04-11T04:04:03.370Z,87.02
2023-04-11T04:05:02.564Z,86.71
2023-04-11T04:06:02.465Z,87.02
2023-04-11T04:07:02.988Z,87.53
2023-04-11T04:08:03.160Z,87.12
2023-04-11T04:09:02.690Z,86.55
2023-04-11T04:10:02.613Z,87.37
2023-04-11T04:11:02.812Z,87.16
2023-04-11T04:12:02.460Z,87.26
2023-04-11T04:13:02.404Z,86.75
2023-04-11T04:14:02.517Z,86.65
2023-04-11T04:15:02.674Z,87.06
2023-04-11T04:16:03.943Z,87.37
2023-04-11T04:17:02.848Z,86.75
2023-04-11T04:18:02.659Z,86.34
2023-04-11T04:19:02.534Z,86.44
2023-04-11T04:20:02.792Z,86.44
2023-04-11T04:21:03.017Z,86.96
2023-04-11T04:22:01.958Z,87.16
2023-04-11T04:23:02.311Z,86.85
2023-04-11T04:24:01.974Z,86.44
2023-04-11T04:25:02.125Z,86.75
2023-04-11T04:26:02.094Z,85.93
2023-04-11T04:27:02.734Z,85.72
2023-04-11T04:28:02.254Z,85.77
2023-04-11T04:29:02.333Z,85.97
2023-04-11T04:30:04.129Z,86.07
2023-04-11T04:31:02.732Z,85.56
2023-04-11T04:32:03.160Z,85.25
2023-04-11T04:33:02.622Z,85.36
2023-04-11T04:34:02.366Z,85.63
2023-04-11T04:35:02.998Z,85.52
2023-04-11T04:36:03.037Z,85.52
2023-04-11T04:37:02.036Z,85.83
2023-04-11T04:38:02.331Z,85.22
2023-04-11T04:39:01.816Z,85.25
2023-04-11T04:40:01.901Z,85.46
2023-04-11T04:41:01.817Z,85.05
2023-04-11T04:42:02.294Z,84.95
2023-04-11T04:43:02.428Z,85.46
2023-04-11T04:44:02.082Z,85.77
2023-04-11T04:45:02.471Z,85.93
2023-04-11T04:46:02.429Z,85.93
2023-04-11T04:47:02.615Z,86.04
2023-04-11T04:48:02.455Z,86.04
2023-04-11T04:49:02.895Z,85.42
2023-04-11T04:50:02.551Z,85.52
2023-04-11T04:51:02.311Z,85.52
2023-04-11T04:52:02.863Z,85.31
2023-04-11T04:53:02.432Z,85.25
2023-04-11T04:54:02.751Z,85.83
2023-04-11T04:55:02.600Z,85.52
2023-04-11T04:56:02.911Z,85.93
2023-04-11T04:57:02.881Z,86.24
2023-04-11T04:58:02.535Z,85.72
2023-04-11T04:59:02.816Z,85.01
2023-04-11T05:00:03.107Z,85.31
2023-04-11T05:01:03.161Z,85.63
2023-04-11T05:02:03.013Z,84.91
2023-04-11T05:03:03.016Z,84.70
2023-04-11T05:04:03.681Z,85.11
2023-04-11T05:05:03.057Z,84.70
2023-04-11T05:06:02.835Z,85.46
2023-04-11T05:07:03.584Z,85.56
2023-04-11T05:08:03.462Z,86.38
2023-04-11T05:09:03.595Z,86.38
2023-04-11T05:10:03.370Z,86.24
2023-04-11T05:11:03.797Z,85.63
2023-04-11T05:12:03.957Z,85.63
2023-04-11T05:13:03.187Z,85.72
2023-04-11T05:14:03.479Z,85.83
2023-04-11T05:15:03.200Z,86.14
2023-04-11T05:16:03.263Z,86.14
2023-04-11T05:17:03.109Z,86.34
2023-04-11T05:18:02.960Z,85.93
2023-04-11T05:19:02.763Z,85.83
2023-04-11T05:20:02.725Z,86.24
2023-04-11T05:21:02.696Z,86.44
2023-04-11T05:22:03.473Z,86.65
2023-04-11T05:23:03.165Z,86.24
2023-04-11T05:24:03.297Z,86.34
2023-04-11T05:25:03.519Z,86.55
2023-04-11T05:26:03.381Z,86.24
2023-04-11T05:27:03.250Z,86.04
2023-04-11T05:28:03.478Z,86.55
2023-04-11T05:29:03.534Z,86.14
2023-04-11T05:30:03.197Z,86.14
2023-04-11T05:31:03.251Z,86.14
2023-04-11T05:32:03.076Z,86.24
2023-04-11T05:33:03.034Z,85.52
2023-04-11T05:34:02.805Z,86.14
2023-04-11T05:35:02.691Z,85.93
2023-04-11T05:36:02.773Z,85.31
2023-04-11T05:37:03.201Z,85.63
2023-04-11T05:38:02.916Z,85.22
2023-04-11T05:39:02.990Z,86.04
2023-04-11T05:40:03.512Z,85.52
2023-04-11T05:41:03.054Z,84.91
2023-04-11T05:42:03.209Z,85.11
2023-04-11T05:43:03.120Z,85.11
2023-04-11T05:44:03.559Z,85.11
2023-04-11T05:45:03.726Z,85.31
2023-04-11T05:46:03.129Z,85.22
2023-04-11T05:47:03.601Z,85.72
2023-04-11T05:48:03.430Z,85.22
2023-04-11T05:49:03.968Z,85.42
2023-04-11T05:50:03.608Z,85.63
2023-04-11T05:51:03.518Z,84.19
2023-04-11T05:52:03.539Z,84.91
2023-04-11T05:53:03.533Z,84.91
2023-04-11T05:54:03.229Z,85.11
2023-04-11T05:55:03.036Z,84.46
2023-04-11T05:56:03.499Z,85.07
2023-04-11T05:57:03.164Z,83.98
2023-04-11T05:58:03.221Z,84.19
2023-04-11T05:59:03.019Z,83.98
2023-04-11T06:00:03.084Z,84.29
2023-04-11T06:01:03.584Z,84.09
2023-04-11T06:02:02.648Z,83.98
2023-04-11T06:03:03.249Z,84.39
2023-04-11T06:04:03.076Z,84.80
2023-04-11T06:05:02.893Z,84.70
2023-04-11T06:06:02.812Z,84.39
2023-04-11T06:07:03.406Z,84.50
2023-04-11T06:08:03.065Z,84.50
2023-04-11T06:09:03.167Z,84.09
2023-04-11T06:10:03.164Z,84.56
2023-04-11T06:11:03.274Z,83.84
2023-04-11T06:12:02.468Z,83.47
2023-04-11T06:13:02.817Z,83.78
2023-04-11T06:14:02.906Z,84.25
2023-04-11T06:15:02.586Z,83.74
2023-04-11T06:16:02.929Z,84.05
2023-04-11T06:17:02.925Z,84.36
2023-04-11T06:18:02.972Z,83.74
2023-04-11T06:19:02.660Z,84.15
2023-04-11T06:20:05.941Z,84.15
2023-04-11T06:21:02.621Z,83.95
2023-04-11T06:22:02.000Z,83.33
2023-04-11T06:23:02.566Z,83.64
2023-04-11T06:24:02.346Z,84.25
2023-04-11T06:25:02.051Z,83.44
2023-04-11T06:26:02.158Z,83.44
2023-04-11T06:27:02.803Z,83.54
2023-04-11T06:28:02.846Z,83.64
2023-04-11T06:29:02.400Z,83.64
2023-04-11T06:30:02.673Z,83.95
2023-04-11T06:31:02.791Z,83.54
2023-04-11T06:32:02.369Z,83.54
2023-04-11T06:33:02.379Z,83.33
2023-04-11T06:34:02.597Z,83.74
2023-04-11T06:35:02.796Z,83.70
2023-04-11T06:36:04.859Z,83.60
2023-04-11T06:37:03.301Z,82.89
2023-04-11T06:38:02.800Z,82.89
2023-04-11T06:39:03.001Z,83.19
2023-04-11T06:40:03.198Z,83.60
2023-04-11T06:41:02.765Z,83.29
2023-04-11T06:42:02.169Z,82.98
2023-04-11T06:43:02.640Z,82.57
2023-04-11T06:44:02.267Z,81.76
2023-04-11T06:45:02.353Z,82.78
2023-04-11T06:46:02.691Z,82.48
2023-04-11T06:47:02.357Z,82.48
2023-04-11T06:48:02.755Z,82.68
2023-04-11T06:49:02.287Z,83.15
2023-04-11T06:50:02.133Z,82.75
2023-04-11T06:51:02.280Z,82.75
2023-04-11T06:52:02.933Z,82.84
2023-04-11T06:53:02.851Z,82.43
2023-04-11T06:54:02.442Z,82.23
2023-04-11T06:55:02.467Z,82.64
2023-04-11T06:56:03.069Z,82.23
2023-04-11T06:57:02.181Z,82.54
2023-04-11T06:58:02.488Z,81.62
2023-04-11T06:59:02.509Z,82.43
2023-04-11T07:00:02.399Z,82.13
2023-04-11T07:01:02.363Z,82.54
2023-04-11T07:02:02.343Z,82.54
2023-04-11T07:03:02.889Z,82.70
2023-04-11T07:04:02.821Z,81.88
2023-04-11T07:05:02.495Z,82.29
2023-04-11T07:06:02.244Z,82.91
2023-04-11T07:07:03.310Z,82.20
2023-04-11T07:08:02.890Z,82.70
2023-04-11T07:09:02.827Z,82.91
2023-04-11T07:10:03.325Z,82.81
2023-04-11T07:11:03.143Z,81.99
2023-04-11T07:12:02.695Z,81.99
2023-04-11T07:13:02.460Z,82.20
2023-04-11T07:14:02.445Z,82.70
2023-04-11T07:15:02.492Z,82.20
2023-04-11T07:16:02.977Z,82.05
2023-04-11T07:17:02.845Z,82.67
2023-04-11T07:18:02.777Z,81.27
2023-04-11T07:19:02.828Z,82.09
2023-04-11T07:20:02.745Z,81.58
2023-04-11T07:21:03.117Z,81.74
2023-04-11T07:22:02.811Z,81.85
2023-04-11T07:23:02.645Z,81.65
2023-04-11T07:24:02.584Z,81.85
2023-04-11T07:25:02.757Z,81.65
2023-04-11T07:26:02.463Z,81.44
2023-04-11T07:27:02.820Z,81.13
2023-04-11T07:28:02.714Z,81.13
2023-04-11T07:29:02.964Z,81.03
2023-04-11T07:30:02.958Z,80.93
2023-04-11T07:31:02.924Z,81.44
2023-04-11T07:32:03.153Z,81.85
2023-04-11T07:33:03.562Z,80.62
2023-04-11T07:34:03.414Z,80.35
2023-04-11T07:35:03.444Z,80.56
2023-04-11T07:36:03.234Z,80.87
2023-04-11T07:37:03.382Z,80.83
2023-04-11T07:38:03.408Z,80.35
2023-04-11T07:39:03.565Z,80.56
2023-04-11T07:40:03.657Z,80.76
2023-04-11T07:41:03.049Z,80.93
2023-04-11T07:42:02.655Z,81.03
2023-04-11T07:43:02.985Z,81.24
2023-04-11T07:44:02.774Z,81.40
2023-04-11T07:45:03.000Z,81.40
2023-04-11T07:46:02.864Z,81.05
2023-04-11T07:47:03.104Z,80.55
2023-04-11T07:48:02.827Z,80.10
2023-04-11T07:49:02.828Z,80.27
2023-04-11T07:50:02.879Z,80.57
2023-04-11T07:51:03.336Z,77.89
2023-04-11T07:52:02.748Z,76.87
2023-04-11T07:53:02.566Z,75.34
2023-04-11T07:54:02.167Z,75.74
2023-04-11T07:55:02.774Z,76.25
2023-04-11T07:56:02.399Z,76.56
2023-04-11T07:57:03.267Z,75.10
2023-04-11T07:58:02.605Z,73.77
2023-04-11T07:59:02.811Z,73.36
2023-04-11T08:00:02.978Z,72.96
2023-04-11T08:01:02.637Z,73.67
2023-04-11T08:02:02.451Z,74.38
2023-04-11T08:03:02.013Z,74.38
2023-04-11T08:04:02.549Z,74.86
2023-04-11T08:05:01.865Z,73.13
2023-04-11T08:06:02.319Z,73.02
2023-04-11T08:07:02.649Z,72.92
2023-04-11T08:08:02.687Z,73.23
2023-04-11T08:09:02.499Z,73.33
2023-04-11T08:10:02.204Z,73.43
2023-04-11T08:11:02.548Z,73.23
2023-04-11T08:12:03.279Z,71.73
2023-04-11T08:13:03.106Z,72.65
2023-04-11T08:14:03.029Z,71.73
2023-04-11T08:15:02.690Z,71.26
2023-04-11T08:16:02.958Z,71.97
2023-04-11T08:17:02.615Z,72.69
2023-04-11T08:18:02.431Z,72.48
2023-04-11T08:19:02.453Z,72.34
2023-04-11T08:20:02.719Z,71.63
2023-04-11T08:21:02.184Z,72.04
2023-04-11T08:22:02.710Z,72.04
2023-04-11T08:23:04.683Z,72.34
2023-04-11T08:24:02.762Z,71.53
2023-04-11T08:25:02.681Z,71.94
2023-04-11T08:26:02.197Z,71.19
2023-04-11T08:27:02.734Z,70.48
2023-04-11T08:28:02.931Z,71.09
2023-04-11T08:29:03.091Z,68.85
2023-04-11T08:30:02.986Z,70.17
2023-04-11T08:31:03.184Z,69.67
2023-04-11T08:32:02.444Z,69.02
2023-04-11T08:33:02.114Z,69.12
2023-04-11T08:34:03.834Z,68.48
2023-04-11T08:35:02.452Z,68.68
2023-04-11T08:36:02.419Z,68.27
2023-04-11T08:37:02.939Z,67.57
2023-04-11T08:38:02.997Z,67.77
2023-04-11T08:39:03.075Z,67.43
2023-04-11T08:40:03.079Z,67.43
2023-04-11T08:41:02.774Z,66.11
2023-04-11T08:42:02.565Z,66.61
2023-04-11T08:43:02.501Z,66.00
2023-04-11T08:44:02.282Z,66.82
2023-04-11T08:45:02.675Z,66.52
2023-04-11T08:46:02.294Z,66.21
2023-04-11T08:47:02.485Z,65.60
2023-04-11T08:48:02.939Z,65.63
2023-04-11T08:49:02.545Z,65.63
2023-04-11T08:50:02.765Z,66.75
2023-04-11T08:51:02.431Z,67.66
2023-04-11T08:52:02.746Z,67.43
2023-04-11T08:53:02.929Z,66.41
2023-04-11T08:54:02.873Z,66.52
2023-04-11T08:55:03.265Z,66.21
2023-04-11T08:56:03.022Z,66.31
2023-04-11T08:57:02.380Z,65.09
2023-04-11T08:58:02.062Z,66.00
2023-04-11T08:59:02.014Z,65.70
2023-04-11T09:00:02.206Z,66.18
2023-04-11T09:01:02.367Z,66.08
2023-04-11T09:02:02.936Z,65.36
2023-04-11T09:03:02.799Z,65.77
2023-04-11T09:04:02.541Z,65.26
2023-04-11T09:05:02.898Z,65.47
2023-04-11T09:06:02.198Z,65.47
2023-04-11T09:07:02.953Z,65.88
2023-04-11T09:08:03.341Z,65.57
2023-04-11T09:09:02.926Z,65.16
2023-04-11T09:10:03.217Z,66.15
2023-04-11T09:11:03.254Z,65.03
2023-04-11T09:12:02.952Z,64.39
2023-04-11T09:13:02.985Z,65.10
2023-04-11T09:14:02.788Z,62.97
2023-04-11T09:15:02.487Z,63.48
2023-04-11T09:16:02.676Z,63.58
2023-04-11T09:17:02.178Z,62.76
2023-04-11T09:18:02.327Z,63.37
2023-04-11T09:19:02.745Z,62.43
2023-04-11T09:20:02.775Z,61.82
2023-04-11T09:21:02.228Z,60.40
2023-04-11T09:22:02.370Z,59.69
2023-04-11T09:23:02.866Z,60.20
2023-04-11T09:24:02.361Z,59.59
2023-04-11T09:25:02.315Z,59.69
2023-04-11T09:26:02.678Z,59.62
2023-04-11T09:27:02.712Z,60.74
2023-04-11T09:28:02.957Z,59.62
2023-04-11T09:29:02.985Z,58.80
2023-04-11T09:30:02.897Z,59.01
2023-04-11T09:31:03.243Z,59.21
2023-04-11T09:32:02.170Z,59.62
2023-04-11T09:33:02.280Z,59.21
2023-04-11T09:34:02.297Z,58.91
2023-04-11T09:35:02.107Z,58.70
2023-04-11T09:36:02.622Z,59.39
2023-04-11T09:37:02.847Z,59.79
2023-04-11T09:38:02.949Z,58.47
2023-04-11T09:39:03.328Z,58.37
2023-04-11T09:40:03.973Z,58.47
2023-04-11T09:41:03.124Z,59.26
2023-04-11T09:42:02.119Z,59.97
2023-04-11T09:43:02.225Z,58.22
2023-04-11T09:44:02.472Z,58.01
2023-04-11T09:45:02.494Z,59.03
2023-04-11T09:46:02.618Z,58.11
2023-04-11T09:47:02.876Z,59.41
2023-04-11T09:48:03.061Z,59.20
2023-04-11T09:49:03.406Z,59.48
2023-04-11T09:50:03.132Z,57.96
2023-04-11T09:51:03.290Z,58.06
2023-04-11T09:52:02.229Z,56.92
2023-04-11T09:53:02.073Z,57.32
2023-04-11T09:54:02.361Z,56.51
2023-04-11T09:55:02.643Z,56.61
2023-04-11T09:56:02.307Z,56.51
2023-04-11T09:57:02.462Z,56.61
2023-04-11T09:58:02.780Z,56.51
2023-04-11T09:59:02.503Z,57.42
2023-04-11T10:00:02.479Z,56.10
2023-04-11T10:01:02.546Z,56.41
2023-04-11T10:02:02.937Z,57.90
2023-04-11T10:03:03.214Z,56.18
2023-04-11T10:04:02.837Z,54.56
2023-04-11T10:05:03.009Z,54.46
2023-04-11T10:06:03.162Z,54.46
2023-04-11T10:07:03.283Z,55.37
2023-04-11T10:08:03.586Z,54.16
2023-04-11T10:09:03.332Z,53.45
2023-04-11T10:10:03.536Z,52.84
2023-04-11T10:11:03.261Z,53.78
2023-04-11T10:12:02.458Z,53.47
2023-04-11T10:13:02.700Z,53.67
2023-04-11T10:14:02.804Z,53.98
2023-04-11T10:15:02.829Z,53.58
2023-04-11T10:16:02.746Z,53.27
2023-04-11T10:17:03.081Z,53.27
2023-04-11T10:18:03.239Z,55.10
2023-04-11T10:19:02.941Z,53.60
2023-04-11T10:20:03.154Z,53.60
2023-04-11T10:21:03.404Z,54.11
2023-04-11T10:22:03.071Z,54.71
2023-04-11T10:23:03.152Z,54.61
2023-04-11T10:24:03.460Z,53.60
2023-04-11T10:25:03.417Z,53.91
2023-04-11T10:26:03.369Z,52.71
2023-04-11T10:27:03.310Z,53.83
2023-04-11T10:28:03.146Z,54.24
2023-04-11T10:29:03.234Z,54.05
2023-04-11T10:30:03.384Z,55.88
2023-04-11T10:31:03.700Z,56.49
2023-04-11T10:32:03.565Z,56.39
2023-04-11T10:33:03.233Z,56.87
2023-04-11T10:34:03.339Z,55.65
2023-04-11T10:35:03.495Z,56.36
2023-04-11T10:36:03.489Z,55.04
2023-04-11T10:37:02.755Z,55.15
2023-04-11T10:38:02.599Z,54.21
2023-04-11T10:39:03.089Z,55.12
2023-04-11T10:40:02.895Z,54.51
2023-04-11T10:41:02.808Z,53.98
2023-04-11T10:42:03.410Z,53.67
2023-04-11T10:43:03.616Z,51.37
2023-04-11T10:44:03.186Z,51.57
2023-04-11T10:45:03.548Z,51.07
2023-04-11T10:46:03.729Z,50.74
2023-04-11T10:47:02.825Z,50.54
2023-04-11T10:48:02.651Z,51.25
2023-04-11T10:49:02.861Z,50.03
2023-04-11T10:50:02.726Z,51.04
2023-04-11T10:51:02.751Z,51.83
2023-04-11T10:52:03.499Z,49.90
2023-04-11T10:53:02.909Z,50.11
2023-04-11T10:54:03.178Z,51.32
2023-04-11T10:55:03.082Z,50.61
2023-04-11T10:56:03.050Z,50.21
2023-04-11T10:57:02.822Z,49.62
2023-04-11T10:58:02.793Z,50.13
2023-04-11T10:59:02.750Z,51.25
2023-04-11T11:00:02.873Z,52.06
2023-04-11T11:01:03.112Z,51.42
2023-04-11T11:02:03.111Z,51.32
2023-04-11T11:03:02.838Z,51.30
2023-04-11T11:04:03.115Z,51.30
2023-04-11T11:05:02.802Z,52.79
2023-04-11T11:06:02.685Z,50.57
2023-04-11T11:07:02.572Z,51.05
2023-04-11T11:08:02.149Z,51.76
2023-04-11T11:09:02.320Z,51.96
2023-04-11T11:10:02.353Z,51.12
2023-04-11T11:11:02.109Z,50.64
2023-04-11T11:12:02.838Z,49.91
2023-04-11T11:13:02.768Z,50.24
2023-04-11T11:14:02.697Z,50.95
2023-04-11T11:15:02.939Z,50.04
2023-04-11T11:16:02.731Z,50.14
2023-04-11T11:17:03.204Z,49.13
2023-04-11T11:18:02.515Z,49.13
2023-04-11T11:19:02.551Z,46.92
2023-04-11T11:20:02.914Z,47.86
2023-04-11T11:21:03.258Z,48.79
2023-04-11T11:22:02.468Z,49.80
2023-04-11T11:23:02.267Z,49.60
2023-04-11T11:24:02.369Z,50.51
2023-04-11T11:25:02.516Z,50.94
2023-04-11T11:26:02.449Z,51.35
2023-04-11T11:27:02.655Z,50.71
2023-04-11T11:28:02.150Z,49.19
2023-04-11T11:29:02.321Z,48.59
2023-04-11T11:30:02.394Z,49.80
2023-04-11T11:31:02.208Z,50.31
2023-04-11T11:32:03.038Z,49.10
2023-04-11T11:33:02.661Z,50.09
2023-04-11T11:34:18.353Z,49.68
2023-04-11T11:35:02.825Z,49.15
2023-04-11T11:36:02.730Z,48.74
2023-04-11T11:37:02.742Z,49.53
2023-04-11T11:38:02.751Z,47.41
2023-04-11T11:39:02.297Z,47.00
2023-04-11T11:40:02.624Z,46.83
2023-04-11T11:41:02.698Z,46.72
2023-04-11T11:42:03.219Z,47.63
2023-04-11T11:43:02.769Z,47.74
2023-04-11T11:44:03.143Z,48.26
2023-04-11T11:45:03.235Z,48.87
2023-04-11T11:46:04.789Z,49.45
2023-04-11T11:47:02.867Z,50.04
2023-04-11T11:48:02.397Z,50.34
2023-04-11T11:49:02.508Z,49.51
2023-04-11T11:50:02.430Z,47.89
2023-04-11T11:51:02.488Z,46.98
2023-04-11T11:52:03.190Z,46.78
2023-04-11T11:53:02.788Z,45.54
2023-04-11T11:54:02.914Z,45.25
2023-04-11T11:55:02.950Z,45.45
2023-04-11T11:56:02.885Z,44.23
2023-04-11T11:57:03.222Z,44.54
2023-04-11T11:58:03.083Z,44.23
2023-04-11T11:59:03.120Z,45.14
2023-04-11T12:00:02.611Z,45.14
2023-04-11T12:01:03.069Z,45.45
2023-04-11T12:02:03.266Z,45.14
2023-04-11T12:03:03.208Z,44.76
2023-04-11T12:04:03.320Z,44.68
2023-04-11T12:05:02.839Z,46.40
2023-04-11T12:06:02.894Z,45.99
2023-04-11T12:07:03.919Z,45.00
2023-04-11T12:08:03.960Z,44.82
2023-04-11T12:09:03.922Z,45.33
2023-04-11T12:10:03.652Z,46.44
2023-04-11T12:11:03.777Z,46.95
2023-04-11T12:12:02.794Z,46.14
2023-04-11T12:13:02.826Z,46.67
2023-04-11T12:14:02.818Z,46.54
2023-04-11T12:15:03.499Z,46.64
2023-04-11T12:16:03.501Z,46.06
2023-04-11T12:17:03.018Z,45.86
2023-04-11T12:18:03.479Z,45.96
2023-04-11T12:19:03.547Z,45.86
2023-04-11T12:20:03.136Z,46.46
2023-04-11T12:21:03.110Z,47.67
2023-04-11T12:22:03.276Z,47.78
2023-04-11T12:23:03.765Z,47.58
2023-04-11T12:24:03.330Z,47.15
2023-04-11T12:25:03.468Z,47.25
2023-04-11T12:26:03.760Z,47.96
2023-04-11T12:27:07.246Z,48.87
2023-04-11T12:28:03.999Z,48.85
2023-04-11T12:29:03.378Z,47.74
2023-04-11T12:30:03.419Z,48.14
2023-04-11T12:31:03.912Z,48.72
2023-04-11T12:32:03.866Z,46.30
2023-04-11T12:33:03.131Z,47.20
2023-04-11T12:34:03.261Z,47.08
2023-04-11T12:35:02.818Z,48.50
2023-04-11T12:36:02.947Z,45.34
2023-04-11T12:37:03.283Z,45.93
2023-04-11T12:38:02.657Z,45.32
2023-04-11T12:39:02.491Z,45.40
2023-04-11T12:40:02.690Z,45.30
2023-04-11T12:41:26.333Z,44.37
2023-04-11T12:42:02.534Z,45.68
2023-04-11T12:43:03.563Z,45.86
2023-04-11T12:44:03.164Z,44.05
2023-04-11T12:45:03.268Z,43.62
2023-04-11T12:46:03.576Z,43.22
2023-04-11T12:47:03.698Z,43.22
2023-04-11T12:48:03.515Z,43.52
2023-04-11T12:49:03.860Z,42.72
2023-04-11T12:50:03.661Z,43.52
2023-04-11T12:51:03.785Z,44.23
2023-04-11T12:52:03.327Z,44.01